sensor_id;sensor_type;location;lat;lon;timestamp;pressure;altitude;pressure_sealevel;temperature;humidity
74798;BME280;63326;45.088;7.658;2023-05-07T00:00:56;98645.38;;;18.37;70.21
74798;BME280;63326;45.088;7.658;2023-05-07T00:03:23;98657.19;;;18.43;69.96
74798;BME280;63326;45.088;7.658;2023-05-07T00:05:50;98666.41;;;18.42;71.11
74798;BME280;63326;45.088;7.658;2023-05-07T00:08:16;98649.81;;;18.20;72.03
74798;BME280;63326;45.088;7.658;2023-05-07T00:10:43;98673.69;;;18.30;73.33
74798;BME280;63326;45.088;7.658;2023-05-07T00:13:10;98674.63;;;18.35;73.17
74798;BME280;63326;45.088;7.658;2023-05-07T00:15:37;98636.69;;;18.17;73.47
74798;BME280;63326;45.088;7.658;2023-05-07T00:18:03;98647.81;;;18.27;73.83
74798;BME280;63326;45.088;7.658;2023-05-07T00:20:30;98641.69;;;18.20;74.17
74798;BME280;63326;45.088;7.658;2023-05-07T00:22:58;98662.59;;;18.31;74.60
74798;BME280;63326;45.088;7.658;2023-05-07T00:25:25;98650.06;;;18.19;75.24
74798;BME280;63326;45.088;7.658;2023-05-07T00:27:51;98676.03;;;18.26;75.08
74798;BME280;63326;45.088;7.658;2023-05-07T00:30:18;98658.09;;;18.25;73.81
74798;BME280;63326;45.088;7.658;2023-05-07T00:32:45;98672.28;;;18.39;73.67
74798;BME280;63326;45.088;7.658;2023-05-07T00:35:12;98638.97;;;18.20;75.05
74798;BME280;63326;45.088;7.658;2023-05-07T00:37:39;98669.34;;;18.40;75.67
74798;BME280;63326;45.088;7.658;2023-05-07T00:40:06;98641.31;;;18.17;74.88
74798;BME280;63326;45.088;7.658;2023-05-07T00:42:34;98657.69;;;18.10;75.74
74798;BME280;63326;45.088;7.658;2023-05-07T00:45:01;98655.81;;;18.10;76.57
74798;BME280;63326;45.088;7.658;2023-05-07T00:47:27;98655.94;;;18.16;76.19
74798;BME280;63326;45.088;7.658;2023-05-07T00:49:54;98659.22;;;18.18;76.07
74798;BME280;63326;45.088;7.658;2023-05-07T00:52:21;98625.41;;;17.90;75.62
74798;BME280;63326;45.088;7.658;2023-05-07T00:54:50;98616.81;;;17.93;75.50
74798;BME280;63326;45.088;7.658;2023-05-07T00:57:18;98651.56;;;18.14;73.50
74798;BME280;63326;45.088;7.658;2023-05-07T00:59:45;98653.09;;;18.10;75.99
74798;BME280;63326;45.088;7.658;2023-05-07T01:02:12;98635.22;;;17.91;76.34
74798;BME280;63326;45.088;7.658;2023-05-07T01:04:38;98632.69;;;17.78;78.52
74798;BME280;63326;45.088;7.658;2023-05-07T01:07:06;98639.75;;;17.79;79.04
74798;BME280;63326;45.088;7.658;2023-05-07T01:09:33;98650.16;;;17.82;79.46
74798;BME280;63326;45.088;7.658;2023-05-07T01:12:03;98621.09;;;17.71;78.84
74798;BME280;63326;45.088;7.658;2023-05-07T01:14:30;98646.84;;;17.80;78.99
74798;BME280;63326;45.088;7.658;2023-05-07T01:16:58;98658.56;;;17.92;78.43
74798;BME280;63326;45.088;7.658;2023-05-07T01:19:25;98620.31;;;17.64;79.14
74798;BME280;63326;45.088;7.658;2023-05-07T01:22:03;98611.38;;;17.45;79.38
74798;BME280;63326;45.088;7.658;2023-05-07T01:24:42;98633.16;;;17.38;80.94
74798;BME280;63326;45.088;7.658;2023-05-07T01:27:09;98618.31;;;17.22;80.07
74798;BME280;63326;45.088;7.658;2023-05-07T01:29:36;98644.41;;;17.35;79.56
74798;BME280;63326;45.088;7.658;2023-05-07T01:32:04;98650.59;;;17.42;79.92
74798;BME280;63326;45.088;7.658;2023-05-07T01:34:32;98654.13;;;17.43;80.03
74798;BME280;63326;45.088;7.658;2023-05-07T01:37:02;98628.63;;;17.14;80.39
74798;BME280;63326;45.088;7.658;2023-05-07T01:39:31;98652.94;;;17.39;80.23
74798;BME280;63326;45.088;7.658;2023-05-07T01:41:58;98657.22;;;17.46;79.78
74798;BME280;63326;45.088;7.658;2023-05-07T01:44:26;98655.44;;;17.40;79.71
74798;BME280;63326;45.088;7.658;2023-05-07T01:46:54;98637.44;;;17.27;79.87
74798;BME280;63326;45.088;7.658;2023-05-07T01:49:22;98659.19;;;17.39;79.63
74798;BME280;63326;45.088;7.658;2023-05-07T01:51:48;98649.25;;;17.33;78.98
74798;BME280;63326;45.088;7.658;2023-05-07T01:54:15;98651.19;;;17.26;81.15
74798;BME280;63326;45.088;7.658;2023-05-07T01:56:43;98634.56;;;17.04;80.86
74798;BME280;63326;45.088;7.658;2023-05-07T01:59:09;98653.25;;;17.31;80.54
74798;BME280;63326;45.088;7.658;2023-05-07T02:01:37;98662.56;;;17.35;80.11
74798;BME280;63326;45.088;7.658;2023-05-07T02:04:03;98643.06;;;17.26;80.05
74798;BME280;63326;45.088;7.658;2023-05-07T02:06:30;98640.97;;;17.28;79.85
74798;BME280;63326;45.088;7.658;2023-05-07T02:09:03;98639.28;;;17.45;79.65
74798;BME280;63326;45.088;7.658;2023-05-07T02:11:29;98639.16;;;17.40;80.29
74798;BME280;63326;45.088;7.658;2023-05-07T02:13:56;98685.97;;;17.66;80.59
74798;BME280;63326;45.088;7.658;2023-05-07T02:16:23;98657.53;;;17.38;80.75
74798;BME280;63326;45.088;7.658;2023-05-07T02:18:51;98684.19;;;17.60;79.96
74798;BME280;63326;45.088;7.658;2023-05-07T02:21:18;98642.53;;;17.36;79.77
74798;BME280;63326;45.088;7.658;2023-05-07T02:23:45;98678.00;;;17.52;78.44
74798;BME280;63326;45.088;7.658;2023-05-07T02:26:12;98693.75;;;17.62;77.46
74798;BME280;63326;45.088;7.658;2023-05-07T02:28:38;98684.41;;;17.58;77.55
74798;BME280;63326;45.088;7.658;2023-05-07T02:31:05;98698.66;;;17.72;77.15
74798;BME280;63326;45.088;7.658;2023-05-07T02:33:33;98690.22;;;17.62;79.23
74798;BME280;63326;45.088;7.658;2023-05-07T02:36:07;98697.66;;;17.66;79.32
74798;BME280;63326;45.088;7.658;2023-05-07T02:38:36;98716.00;;;17.71;79.69
74798;BME280;63326;45.088;7.658;2023-05-07T02:41:04;98697.28;;;17.63;79.53
74798;BME280;63326;45.088;7.658;2023-05-07T02:43:31;98695.47;;;17.56;79.45
74798;BME280;63326;45.088;7.658;2023-05-07T02:48:29;98703.91;;;17.48;78.50
74798;BME280;63326;45.088;7.658;2023-05-07T02:50:56;98719.88;;;17.56;78.01
74798;BME280;63326;45.088;7.658;2023-05-07T02:53:23;98721.00;;;17.49;79.17
74798;BME280;63326;45.088;7.658;2023-05-07T02:55:53;98738.31;;;17.66;78.60
74798;BME280;63326;45.088;7.658;2023-05-07T02:58:20;98732.75;;;17.61;77.75
74798;BME280;63326;45.088;7.658;2023-05-07T03:00:47;98734.41;;;17.62;76.22
74798;BME280;63326;45.088;7.658;2023-05-07T03:03:31;98731.34;;;17.59;75.18
74798;BME280;63326;45.088;7.658;2023-05-07T03:05:58;98740.66;;;17.63;75.16
74798;BME280;63326;45.088;7.658;2023-05-07T03:08:25;98736.00;;;17.51;75.92
74798;BME280;63326;45.088;7.658;2023-05-07T03:10:52;98735.31;;;17.56;76.42
74798;BME280;63326;45.088;7.658;2023-05-07T03:13:19;98734.69;;;17.54;76.66
74798;BME280;63326;45.088;7.658;2023-05-07T03:15:47;98737.94;;;17.63;76.73
74798;BME280;63326;45.088;7.658;2023-05-07T03:18:13;98711.66;;;17.45;75.64
74798;BME280;63326;45.088;7.658;2023-05-07T03:20:41;98731.75;;;17.55;75.97
74798;BME280;63326;45.088;7.658;2023-05-07T03:23:08;98713.94;;;17.48;76.77
74798;BME280;63326;45.088;7.658;2023-05-07T03:25:35;98706.75;;;17.35;76.17
74798;BME280;63326;45.088;7.658;2023-05-07T03:28:02;98732.22;;;17.52;76.53
74798;BME280;63326;45.088;7.658;2023-05-07T03:30:38;98728.19;;;17.37;76.41
74798;BME280;63326;45.088;7.658;2023-05-07T03:33:05;98743.56;;;17.43;76.99
74798;BME280;63326;45.088;7.658;2023-05-07T03:35:32;98747.50;;;17.47;77.28
74798;BME280;63326;45.088;7.658;2023-05-07T03:37:59;98750.78;;;17.31;77.49
74798;BME280;63326;45.088;7.658;2023-05-07T03:40:28;98748.31;;;17.29;77.78
74798;BME280;63326;45.088;7.658;2023-05-07T03:42:56;98733.53;;;17.25;77.96
74798;BME280;63326;45.088;7.658;2023-05-07T03:45:25;98765.72;;;17.40;77.74
74798;BME280;63326;45.088;7.658;2023-05-07T03:48:03;98752.00;;;17.35;78.03
74798;BME280;63326;45.088;7.658;2023-05-07T03:50:31;98772.19;;;17.39;78.08
74798;BME280;63326;45.088;7.658;2023-05-07T03:52:58;98773.13;;;17.26;78.47
74798;BME280;63326;45.088;7.658;2023-05-07T03:55:25;98776.28;;;17.23;78.76
74798;BME280;63326;45.088;7.658;2023-05-07T03:57:57;98759.16;;;17.04;78.52
74798;BME280;63326;45.088;7.658;2023-05-07T04:00:26;98776.44;;;17.03;79.46
74798;BME280;63326;45.088;7.658;2023-05-07T04:02:57;98776.91;;;17.00;78.93
74798;BME280;63326;45.088;7.658;2023-05-07T04:05:28;98778.72;;;17.06;78.09
74798;BME280;63326;45.088;7.658;2023-05-07T04:07:59;98775.47;;;16.97;77.24
74798;BME280;63326;45.088;7.658;2023-05-07T04:10:33;98752.84;;;16.85;77.51
74798;BME280;63326;45.088;7.658;2023-05-07T04:13:05;98767.28;;;16.79;77.19
74798;BME280;63326;45.088;7.658;2023-05-07T04:15:36;98746.69;;;16.65;76.88
74798;BME280;63326;45.088;7.658;2023-05-07T04:18:06;98767.91;;;16.75;76.85
74798;BME280;63326;45.088;7.658;2023-05-07T04:20:34;98746.56;;;16.53;76.81
74798;BME280;63326;45.088;7.658;2023-05-07T04:23:05;98744.56;;;16.42;77.08
74798;BME280;63326;45.088;7.658;2023-05-07T04:25:33;98769.94;;;16.48;76.76
74798;BME280;63326;45.088;7.658;2023-05-07T04:28:07;98800.47;;;16.61;76.83
74798;BME280;63326;45.088;7.658;2023-05-07T04:30:34;98773.94;;;16.45;76.59
74798;BME280;63326;45.088;7.658;2023-05-07T04:33:03;98772.47;;;16.42;76.43
74798;BME280;63326;45.088;7.658;2023-05-07T04:35:31;98768.94;;;16.42;76.02
74798;BME280;63326;45.088;7.658;2023-05-07T04:37:58;98817.53;;;16.68;75.17
74798;BME280;63326;45.088;7.658;2023-05-07T04:40:25;98805.50;;;16.58;75.45
74798;BME280;63326;45.088;7.658;2023-05-07T04:42:53;98803.19;;;16.55;75.58
74798;BME280;63326;45.088;7.658;2023-05-07T04:45:21;98785.13;;;16.49;75.67
74798;BME280;63326;45.088;7.658;2023-05-07T04:47:49;98822.50;;;16.65;75.80
74798;BME280;63326;45.088;7.658;2023-05-07T04:50:17;98813.38;;;16.59;76.04
74798;BME280;63326;45.088;7.658;2023-05-07T04:52:47;98835.03;;;16.66;76.23
74798;BME280;63326;45.088;7.658;2023-05-07T04:55:14;98840.03;;;16.69;76.13
74798;BME280;63326;45.088;7.658;2023-05-07T04:57:41;98837.50;;;16.67;76.35
74798;BME280;63326;45.088;7.658;2023-05-07T05:00:11;98834.78;;;16.74;76.29
74798;BME280;63326;45.088;7.658;2023-05-07T05:02:43;98813.00;;;16.56;76.36
74798;BME280;63326;45.088;7.658;2023-05-07T05:05:12;98818.97;;;16.64;76.12
74798;BME280;63326;45.088;7.658;2023-05-07T05:07:40;98848.28;;;16.81;76.28
74798;BME280;63326;45.088;7.658;2023-05-07T05:10:07;98826.47;;;16.69;76.67
74798;BME280;63326;45.088;7.658;2023-05-07T05:12:37;98836.59;;;16.87;78.25
74798;BME280;63326;45.088;7.658;2023-05-07T05:15:05;98799.25;;;16.57;78.01
74798;BME280;63326;45.088;7.658;2023-05-07T05:17:32;98814.00;;;16.68;78.54
74798;BME280;63326;45.088;7.658;2023-05-07T05:20:02;98812.13;;;16.68;79.14
74798;BME280;63326;45.088;7.658;2023-05-07T05:22:30;98848.97;;;17.01;78.84
74798;BME280;63326;45.088;7.658;2023-05-07T05:24:58;98821.78;;;16.89;78.52
74798;BME280;63326;45.088;7.658;2023-05-07T05:27:26;98833.94;;;17.05;79.55
74798;BME280;63326;45.088;7.658;2023-05-07T05:29:53;98821.22;;;17.06;78.75
74798;BME280;63326;45.088;7.658;2023-05-07T05:32:20;98848.84;;;17.21;78.13
74798;BME280;63326;45.088;7.658;2023-05-07T05:34:50;98822.13;;;16.99;77.74
74798;BME280;63326;45.088;7.658;2023-05-07T05:37:17;98836.66;;;17.05;78.85
74798;BME280;63326;45.088;7.658;2023-05-07T05:39:44;98839.53;;;17.10;78.50
74798;BME280;63326;45.088;7.658;2023-05-07T05:42:12;98833.53;;;17.08;79.17
74798;BME280;63326;45.088;7.658;2023-05-07T05:44:39;98845.06;;;17.22;78.27
74798;BME280;63326;45.088;7.658;2023-05-07T05:47:06;98828.47;;;17.12;78.42
74798;BME280;63326;45.088;7.658;2023-05-07T05:49:33;98836.66;;;17.05;79.07
74798;BME280;63326;45.088;7.658;2023-05-07T05:52:03;98832.03;;;17.12;79.43
74798;BME280;63326;45.088;7.658;2023-05-07T05:54:30;98865.44;;;17.31;78.59
74798;BME280;63326;45.088;7.658;2023-05-07T05:56:57;98845.88;;;17.29;78.32
74798;BME280;63326;45.088;7.658;2023-05-07T05:59:24;98826.34;;;17.20;78.10
74798;BME280;63326;45.088;7.658;2023-05-07T06:01:53;98839.16;;;17.32;78.02
74798;BME280;63326;45.088;7.658;2023-05-07T06:04:19;98816.81;;;17.11;77.75
74798;BME280;63326;45.088;7.658;2023-05-07T06:06:46;98834.25;;;17.22;79.01
74798;BME280;63326;45.088;7.658;2023-05-07T06:09:13;98835.59;;;17.38;78.55
74798;BME280;63326;45.088;7.658;2023-05-07T06:11:43;98835.41;;;17.58;77.95
74798;BME280;63326;45.088;7.658;2023-05-07T06:14:11;98831.97;;;17.69;76.91
74798;BME280;63326;45.088;7.658;2023-05-07T06:16:38;98853.41;;;17.95;76.79
74798;BME280;63326;45.088;7.658;2023-05-07T06:19:06;98811.97;;;17.88;76.07
74798;BME280;63326;45.088;7.658;2023-05-07T06:21:33;98829.53;;;18.04;74.85
74798;BME280;63326;45.088;7.658;2023-05-07T06:24:00;98865.94;;;18.33;73.13
74798;BME280;63326;45.088;7.658;2023-05-07T06:26:27;98848.88;;;18.07;74.24
74798;BME280;63326;45.088;7.658;2023-05-07T06:28:54;98847.09;;;18.01;74.52
74798;BME280;63326;45.088;7.658;2023-05-07T06:31:21;98858.38;;;18.17;73.53
74798;BME280;63326;45.088;7.658;2023-05-07T06:33:56;98831.88;;;18.00;73.17
74798;BME280;63326;45.088;7.658;2023-05-07T06:36:29;98869.41;;;18.22;73.16
74798;BME280;63326;45.088;7.658;2023-05-07T06:38:58;98856.06;;;18.02;71.47
74798;BME280;63326;45.088;7.658;2023-05-07T06:41:25;98857.13;;;18.01;71.98
74798;BME280;63326;45.088;7.658;2023-05-07T06:43:54;98837.03;;;17.83;71.53
74798;BME280;63326;45.088;7.658;2023-05-07T06:46:29;98865.56;;;18.11;71.54
74798;BME280;63326;45.088;7.658;2023-05-07T06:48:56;98857.25;;;18.06;71.65
74798;BME280;63326;45.088;7.658;2023-05-07T06:51:24;98840.31;;;17.92;70.44
74798;BME280;63326;45.088;7.658;2023-05-07T06:53:51;98847.31;;;18.00;71.16
74798;BME280;63326;45.088;7.658;2023-05-07T06:56:18;98848.22;;;18.12;70.76
74798;BME280;63326;45.088;7.658;2023-05-07T06:58:47;98861.63;;;18.25;70.87
74798;BME280;63326;45.088;7.658;2023-05-07T07:01:13;98876.94;;;18.38;69.37
74798;BME280;63326;45.088;7.658;2023-05-07T07:03:42;98874.44;;;18.36;70.57
74798;BME280;63326;45.088;7.658;2023-05-07T07:06:09;98846.56;;;18.29;69.77
74798;BME280;63326;45.088;7.658;2023-05-07T07:08:36;98857.03;;;18.44;70.00
74798;BME280;63326;45.088;7.658;2023-05-07T07:11:06;98869.22;;;18.53;68.75
74798;BME280;63326;45.088;7.658;2023-05-07T07:13:33;98869.06;;;18.48;68.22
74798;BME280;63326;45.088;7.658;2023-05-07T07:16:00;98858.38;;;18.53;68.67
74798;BME280;63326;45.088;7.658;2023-05-07T07:18:27;98892.44;;;18.86;68.59
74798;BME280;63326;45.088;7.658;2023-05-07T07:20:55;98861.44;;;18.75;67.92
74798;BME280;63326;45.088;7.658;2023-05-07T07:23:21;98865.16;;;18.81;67.55
74798;BME280;63326;45.088;7.658;2023-05-07T07:25:48;98885.88;;;18.93;66.53
74798;BME280;63326;45.088;7.658;2023-05-07T07:28:15;98878.84;;;18.86;66.71
74798;BME280;63326;45.088;7.658;2023-05-07T07:30:43;98883.88;;;19.01;66.47
74798;BME280;63326;45.088;7.658;2023-05-07T07:33:10;98871.06;;;18.89;65.83
74798;BME280;63326;45.088;7.658;2023-05-07T07:35:37;98899.59;;;19.10;65.19
74798;BME280;63326;45.088;7.658;2023-05-07T07:38:05;98896.44;;;19.13;65.08
74798;BME280;63326;45.088;7.658;2023-05-07T07:40:34;98896.56;;;19.18;64.18
74798;BME280;63326;45.088;7.658;2023-05-07T07:43:01;98858.47;;;18.95;64.73
74798;BME280;63326;45.088;7.658;2023-05-07T07:45:30;98860.13;;;18.96;65.42
74798;BME280;63326;45.088;7.658;2023-05-07T07:47:57;98870.44;;;19.06;65.07
74798;BME280;63326;45.088;7.658;2023-05-07T07:50:24;98860.41;;;19.18;63.99
74798;BME280;63326;45.088;7.658;2023-05-07T07:53:12;98884.22;;;19.46;64.28
74798;BME280;63326;45.088;7.658;2023-05-07T07:55:39;98854.09;;;19.47;63.24
74798;BME280;63326;45.088;7.658;2023-05-07T07:58:08;98862.75;;;19.79;62.45
74798;BME280;63326;45.088;7.658;2023-05-07T08:00:36;98839.09;;;20.03;60.69
74798;BME280;63326;45.088;7.658;2023-05-07T08:03:02;98823.81;;;20.14;59.97
74798;BME280;63326;45.088;7.658;2023-05-07T08:05:34;98841.09;;;20.60;58.68
74798;BME280;63326;45.088;7.658;2023-05-07T08:08:01;98858.03;;;21.19;57.23
74798;BME280;63326;45.088;7.658;2023-05-07T08:10:32;98869.16;;;21.46;54.00
74798;BME280;63326;45.088;7.658;2023-05-07T08:13:06;98852.56;;;21.86;52.89
74798;BME280;63326;45.088;7.658;2023-05-07T08:15:35;98872.31;;;22.49;53.41
74798;BME280;63326;45.088;7.658;2023-05-07T08:18:03;98876.84;;;22.60;50.11
74798;BME280;63326;45.088;7.658;2023-05-07T08:20:30;98874.53;;;22.74;49.33
74798;BME280;63326;45.088;7.658;2023-05-07T08:22:57;98865.56;;;23.00;49.11
74798;BME280;63326;45.088;7.658;2023-05-07T08:25:25;98853.31;;;23.08;47.09
74798;BME280;63326;45.088;7.658;2023-05-07T08:27:52;98862.78;;;23.22;46.64
74798;BME280;63326;45.088;7.658;2023-05-07T08:30:19;98865.38;;;23.39;45.30
74798;BME280;63326;45.088;7.658;2023-05-07T08:32:47;98851.00;;;23.21;44.88
74798;BME280;63326;45.088;7.658;2023-05-07T08:35:13;98858.03;;;23.12;44.81
74798;BME280;63326;45.088;7.658;2023-05-07T08:37:40;98853.13;;;23.14;44.21
74798;BME280;63326;45.088;7.658;2023-05-07T08:40:08;98867.41;;;23.21;45.36
74798;BME280;63326;45.088;7.658;2023-05-07T08:42:39;98836.66;;;23.09;45.83
74798;BME280;63326;45.088;7.658;2023-05-07T08:45:09;98848.66;;;23.35;44.68
74798;BME280;63326;45.088;7.658;2023-05-07T08:47:43;98852.22;;;23.36;44.66
74798;BME280;63326;45.088;7.658;2023-05-07T08:50:16;98859.59;;;23.62;43.92
74798;BME280;63326;45.088;7.658;2023-05-07T08:52:43;98861.06;;;23.48;44.04
74798;BME280;63326;45.088;7.658;2023-05-07T08:55:12;98868.31;;;23.59;44.13
74798;BME280;63326;45.088;7.658;2023-05-07T08:57:41;98826.06;;;23.50;44.14
74798;BME280;63326;45.088;7.658;2023-05-07T09:00:09;98841.44;;;23.56;44.46
74798;BME280;63326;45.088;7.658;2023-05-07T09:02:38;98838.53;;;23.63;43.47
74798;BME280;63326;45.088;7.658;2023-05-07T09:05:07;98846.53;;;23.42;43.52
74798;BME280;63326;45.088;7.658;2023-05-07T09:07:36;98851.53;;;23.50;42.98
74798;BME280;63326;45.088;7.658;2023-05-07T09:10:05;98853.75;;;22.94;43.93
74798;BME280;63326;45.088;7.658;2023-05-07T09:12:34;98845.78;;;23.20;44.41
74798;BME280;63326;45.088;7.658;2023-05-07T09:15:08;98856.69;;;23.15;43.71
74798;BME280;63326;45.088;7.658;2023-05-07T09:17:35;98826.69;;;22.98;43.11
74798;BME280;63326;45.088;7.658;2023-05-07T09:20:04;98831.44;;;23.08;44.12
74798;BME280;63326;45.088;7.658;2023-05-07T09:22:38;98820.41;;;22.97;43.67
74798;BME280;63326;45.088;7.658;2023-05-07T09:25:09;98838.94;;;22.47;45.13
74798;BME280;63326;45.088;7.658;2023-05-07T09:27:37;98829.75;;;22.31;45.13
74798;BME280;63326;45.088;7.658;2023-05-07T09:30:05;98838.50;;;22.33;45.46
74798;BME280;63326;45.088;7.658;2023-05-07T09:32:37;98812.41;;;21.65;45.41
74798;BME280;63326;45.088;7.658;2023-05-07T09:35:15;98848.94;;;21.97;46.30
74798;BME280;63326;45.088;7.658;2023-05-07T09:37:47;98825.69;;;22.11;45.00
74798;BME280;63326;45.088;7.658;2023-05-07T09:40:22;98818.69;;;22.21;45.44
74798;BME280;63326;45.088;7.658;2023-05-07T09:42:51;98846.84;;;22.04;46.25
74798;BME280;63326;45.088;7.658;2023-05-07T09:47:49;98827.63;;;22.16;45.36
74798;BME280;63326;45.088;7.658;2023-05-07T09:50:24;98802.53;;;21.97;46.03
74798;BME280;63326;45.088;7.658;2023-05-07T09:52:52;98794.03;;;22.16;45.00
74798;BME280;63326;45.088;7.658;2023-05-07T09:55:20;98824.53;;;22.78;44.49
74798;BME280;63326;45.088;7.658;2023-05-07T09:57:51;98821.28;;;23.03;43.67
74798;BME280;63326;45.088;7.658;2023-05-07T10:00:19;98792.59;;;22.79;43.95
74798;BME280;63326;45.088;7.658;2023-05-07T10:02:49;98811.59;;;23.54;42.03
74798;BME280;63326;45.088;7.658;2023-05-07T10:05:25;98783.13;;;23.93;40.74
74798;BME280;63326;45.088;7.658;2023-05-07T10:07:56;98801.50;;;24.55;39.62
74798;BME280;63326;45.088;7.658;2023-05-07T10:10:24;98787.38;;;25.29;38.72
74798;BME280;63326;45.088;7.658;2023-05-07T10:12:52;98760.72;;;25.60;36.65
74798;BME280;63326;45.088;7.658;2023-05-07T10:15:28;98772.56;;;25.15;37.12
74798;BME280;63326;45.088;7.658;2023-05-07T10:17:57;98755.78;;;25.42;36.85
74798;BME280;63326;45.088;7.658;2023-05-07T10:20:25;98772.75;;;25.90;36.66
74798;BME280;63326;45.088;7.658;2023-05-07T10:22:55;98784.00;;;25.98;36.10
74798;BME280;63326;45.088;7.658;2023-05-07T10:25:32;98781.28;;;25.88;36.24
74798;BME280;63326;45.088;7.658;2023-05-07T10:28:08;98773.09;;;25.22;37.45
74798;BME280;63326;45.088;7.658;2023-05-07T10:33:37;98760.03;;;24.31;38.76
74798;BME280;63326;45.088;7.658;2023-05-07T10:36:07;98752.03;;;24.29;39.45
74798;BME280;63326;45.088;7.658;2023-05-07T10:38:34;98754.59;;;24.46;38.82
74798;BME280;63326;45.088;7.658;2023-05-07T10:41:01;98788.66;;;24.76;38.75
74798;BME280;63326;45.088;7.658;2023-05-07T10:43:39;98780.63;;;24.49;39.52
74798;BME280;63326;45.088;7.658;2023-05-07T10:46:14;98775.69;;;24.40;39.58
74798;BME280;63326;45.088;7.658;2023-05-07T10:51:37;98758.78;;;24.74;39.04
74798;BME280;63326;45.088;7.658;2023-05-07T10:54:25;98762.63;;;24.98;38.25
74798;BME280;63326;45.088;7.658;2023-05-07T10:57:36;98769.00;;;25.04;37.55
74798;BME280;63326;45.088;7.658;2023-05-07T11:05:37;98741.78;;;24.77;38.79
74798;BME280;63326;45.088;7.658;2023-05-07T11:08:14;98743.22;;;25.15;38.19
74798;BME280;63326;45.088;7.658;2023-05-07T11:10:55;98750.28;;;25.62;37.94
74798;BME280;63326;45.088;7.658;2023-05-07T11:13:45;98747.75;;;25.91;36.54
74798;BME280;63326;45.088;7.658;2023-05-07T11:16:44;98717.25;;;25.98;35.96
74798;BME280;63326;45.088;7.658;2023-05-07T11:19:54;98738.25;;;26.38;35.25
74798;BME280;63326;45.088;7.658;2023-05-07T11:22:37;98724.78;;;26.31;34.86
74798;BME280;63326;45.088;7.658;2023-05-07T11:25:22;98739.69;;;26.15;35.26
74798;BME280;63326;45.088;7.658;2023-05-07T11:27:55;98734.81;;;26.02;35.79
74798;BME280;63326;45.088;7.658;2023-05-07T11:30:24;98726.94;;;25.60;37.04
74798;BME280;63326;45.088;7.658;2023-05-07T11:32:51;98724.25;;;25.34;37.91
74798;BME280;63326;45.088;7.658;2023-05-07T11:35:18;98723.97;;;25.31;37.60
74798;BME280;63326;45.088;7.658;2023-05-07T11:37:49;98707.53;;;25.25;37.57
74798;BME280;63326;45.088;7.658;2023-05-07T11:40:16;98691.56;;;25.43;37.35
74798;BME280;63326;45.088;7.658;2023-05-07T11:42:43;98722.06;;;25.36;37.38
74798;BME280;63326;45.088;7.658;2023-05-07T11:45:09;98681.19;;;25.19;38.12
74798;BME280;63326;45.088;7.658;2023-05-07T11:47:37;98705.16;;;25.99;36.59
74798;BME280;63326;45.088;7.658;2023-05-07T11:50:08;98698.81;;;26.58;35.14
74798;BME280;63326;45.088;7.658;2023-05-07T11:52:35;98725.81;;;26.85;35.08
74798;BME280;63326;45.088;7.658;2023-05-07T11:55:02;98725.56;;;26.42;34.89
74798;BME280;63326;45.088;7.658;2023-05-07T11:57:33;98722.44;;;26.59;34.90
74798;BME280;63326;45.088;7.658;2023-05-07T12:00:00;98714.06;;;26.79;34.55
74798;BME280;63326;45.088;7.658;2023-05-07T12:02:40;98719.00;;;27.74;32.99
74798;BME280;63326;45.088;7.658;2023-05-07T12:05:08;98714.09;;;28.76;31.37
74798;BME280;63326;45.088;7.658;2023-05-07T12:07:36;98711.84;;;28.96;30.70
74798;BME280;63326;45.088;7.658;2023-05-07T12:10:06;98695.84;;;28.18;31.11
74798;BME280;63326;45.088;7.658;2023-05-07T12:12:41;98725.56;;;28.45;31.78
74798;BME280;63326;45.088;7.658;2023-05-07T12:15:10;98715.78;;;27.09;33.83
74798;BME280;63326;45.088;7.658;2023-05-07T12:17:37;98716.38;;;26.96;34.40
74798;BME280;63326;45.088;7.658;2023-05-07T12:20:05;98694.22;;;27.16;33.58
74798;BME280;63326;45.088;7.658;2023-05-07T12:22:32;98712.72;;;27.93;32.91
74798;BME280;63326;45.088;7.658;2023-05-07T12:24:59;98708.06;;;28.12;32.41
74798;BME280;63326;45.088;7.658;2023-05-07T12:27:26;98721.13;;;28.25;32.12
74798;BME280;63326;45.088;7.658;2023-05-07T12:29:53;98689.81;;;27.44;33.15
74798;BME280;63326;45.088;7.658;2023-05-07T12:32:21;98693.34;;;27.98;33.13
74798;BME280;63326;45.088;7.658;2023-05-07T12:34:51;98709.63;;;27.17;34.45
74798;BME280;63326;45.088;7.658;2023-05-07T12:37:24;98701.47;;;27.36;34.17
74798;BME280;63326;45.088;7.658;2023-05-07T12:40:09;98708.75;;;27.51;33.76
74798;BME280;63326;45.088;7.658;2023-05-07T12:42:37;98691.78;;;27.68;33.84
74798;BME280;63326;45.088;7.658;2023-05-07T12:45:08;98678.66;;;28.26;33.04
74798;BME280;63326;45.088;7.658;2023-05-07T12:47:36;98701.41;;;28.75;31.55
74798;BME280;63326;45.088;7.658;2023-05-07T12:50:07;98685.47;;;29.37;30.55
74798;BME280;63326;45.088;7.658;2023-05-07T12:52:34;98682.28;;;28.03;32.04
74798;BME280;63326;45.088;7.658;2023-05-07T12:55:04;98696.19;;;28.35;31.54
74798;BME280;63326;45.088;7.658;2023-05-07T12:57:37;98666.47;;;28.08;31.72
74798;BME280;63326;45.088;7.658;2023-05-07T13:00:05;98673.47;;;29.14;30.83
74798;BME280;63326;45.088;7.658;2023-05-07T13:02:39;98688.94;;;29.42;30.28
74798;BME280;63326;45.088;7.658;2023-05-07T13:05:07;98665.66;;;29.48;30.02
74798;BME280;63326;45.088;7.658;2023-05-07T13:07:35;98657.13;;;31.08;27.45
74798;BME280;63326;45.088;7.658;2023-05-07T13:10:03;98676.84;;;31.69;26.97
74798;BME280;63326;45.088;7.658;2023-05-07T13:12:30;98658.56;;;31.59;26.22
74798;BME280;63326;45.088;7.658;2023-05-07T13:14:57;98674.00;;;31.51;26.29
74798;BME280;63326;45.088;7.658;2023-05-07T13:17:24;98661.47;;;31.23;27.01
74798;BME280;63326;45.088;7.658;2023-05-07T13:19:50;98677.53;;;30.18;28.30
74798;BME280;63326;45.088;7.658;2023-05-07T13:22:17;98657.50;;;28.59;30.27
74798;BME280;63326;45.088;7.658;2023-05-07T13:24:44;98678.03;;;28.34;31.08
74798;BME280;63326;45.088;7.658;2023-05-07T13:27:11;98668.94;;;27.67;31.64